This demonstration page uses our WeatherBlox Daily Observations layout. Learn more.

Left ArrowRight Arrow

41.86663, -103.66717

Hourly Observations for July 6, 2018

Temp ( °F °C ) Dew Point ( °F °C ) Humidity (%) Winds ( mph kmh ) Pressure ( in mb ) Visibility ( mi km ) Precip ( " mm )
12:53 am 00:53 Clear 71 21.7 65 18.3 81 81 SE 15 24 30.31 1026 10 16.0934 N/A
1:53 am 01:53 Clear 68 20 65 18.3 90 90 ESE 13 20 30.31 1026 10 16.0934 N/A
2:53 am 02:53 Clear 66 18.9 64 17.8 93 93 ESE 12 19 30.29 1026 10 16.0934 N/A
3:53 am 03:53 Clear 65 18.3 64 17.8 97 97 ESE 9 15 30.3 1026 10 16.0934 N/A
4:53 am 04:53 Clear 64 17.8 64 17.8 100 100 ESE 10 17 30.3 1026 10 16.0934 N/A
5:53 am 05:53 Mostly Sunny 64 17.8 64 17.8 100 100 E 7 11 30.3 1026 10 16.0934 N/A
6:53 am 06:53 Sunny 68 20 65 18.3 90 90 SE 12 19 30.29 1026 10 16.0934 N/A
7:53 am 07:53 Sunny 72 22.2 66 18.9 82 82 SE 13 20 30.28 1026 10 16.0934 N/A
8:53 am 08:53 Sunny 76 24.4 67 19.4 74 74 SSE 14 22 30.28 1025 10 16.0934 N/A
9:53 am 09:53 Sunny 79 26.1 67 19.4 67 67 SSE 14 22 30.27 1025 10 16.0934 N/A
10:53 am 10:53 Sunny 83 28.3 67 19.4 59 59 SSE 15 24 30.24 1024 10 16.0934 N/A
11:53 am 11:53 Sunny 86 30 67 19.4 53 53 SSE 17 28 30.22 1024 10 16.0934 N/A
12:53 pm 12:53 Sunny 88 31.1 65 18.3 46 46 SSE 17 28 30.19 1022 10 16.0934 N/A
1:53 pm 13:53 Sunny 90 32.2 64 17.8 42 42 SSE 16 26 30.17 1022 10 16.0934 N/A
2:53 pm 14:53 Sunny 91 32.8 61 16.1 37 37 SSE 18 30 30.14 1021 10 16.0934 N/A
3:53 pm 15:53 Sunny 92 33.3 63 17.2 38 38 SSE 16 26 30.11 1020 10 16.0934 N/A
4:53 pm 16:53 Sunny 91 32.8 62 16.7 38 38 SE 16 26 30.09 1019 10 16.0934 N/A
5:53 pm 17:53 Sunny 90 32.2 63 17.2 41 41 SE 16 26 30.08 1019 10 16.0934 N/A
6:53 pm 18:53 Sunny 88 31.1 63 17.2 43 43 SE 13 20 30.06 1018 10 16.0934 N/A
7:53 pm 19:53 Sunny 84 28.9 64 17.8 51 51 SE 9 15 30.07 1018 10 16.0934 N/A
8:53 pm 20:53 Clear 78 25.6 65 18.3 64 64 ESE 12 19 30.08 1019 10 16.0934 N/A
9:53 pm 21:53 Clear 77 25 65 18.3 66 66 ESE 14 22 30.1 1019 10 16.0934 N/A
10:53 pm 22:53 Clear 74 23.3 66 18.9 76 76 ESE 12 19 30.1 1019 10 16.0934 N/A
11:53 pm 23:53 Clear 71 21.7 66 18.9 84 84 ESE 10 17 30.09 1019 10 16.0934 N/A

Powered by AerisWeather